Aérodrome :
LOGIN :

S'inscrire | Disclaimer

   EN    FR    IT 

 










Légende :    VFR   VFR Marginal   IFR   IFR Intensif   IFR Très Intensif
Visi : 
Plafond : 
>= 8 km
>= 3000ft
5 à 8 km
1000 à 3000 ft
1500m à 5 km
500 à 1000 ft
800 à 1500m
200 à 500 ft
< 800m
< 200 ft
Symboles :   Orages  Brouillard  Fortes neiges  Fortes précipitations  Vent > 20 kt
SIGMETs :   Divers  Orages  Givrage  Turbulence  Onde Orograph.  Cendres Volcan.







- Altitude de l'aérodrome : 49 ft
- Code IATA : GLZ


EHGR - Gilze-Rijen Airbase

DERNIER METAR :
  • 230525Z AUTO 10007KT 5000 BR OVC130 M04/M04 Q0997 WHT

METARs EXPIRÉS :
  • 230455Z AUTO 10007KT 070V140 5000 BR OVC150 M04/M05 Q0997 WHT
  • 230425Z AUTO 09006KT 060V120 5000 BR OVC150 M05/M06 Q0997 WHT
  • 230409Z AUTO 10006KT 5000 BR OVC150 M04/M04 Q0997 WHT
  • 230356Z AUTO 10005KT 070V140 5000 BR OVC160 M04/M04 Q0997 WHT
  • 230355Z AUTO 10005KT 070V130 4400 BR BKN160 M04/M04 Q0997 GRN
  • 230325Z AUTO 10004KT 6000 BR NCD M03/M04 Q0997 WHT
  • 230302Z AUTO 12005KT 6000 BR FEW010 M02/M03 Q0997 WHT
  • 230255Z AUTO 11005KT 6000 BR OVC010 M01/M03 Q0997 GRN
  • 230234Z AUTO 13005KT 100V160 7000 BR OVC008 M01/M02 Q0997 GRN

Prévision TAF périmée.
Pas de NOTAMs connus pour ce terrain.



MET'MAP, la Météo Aéronautique d'un coup d'oeil ! - Copyright ORBIFLY Décembre 2007 - Disclaimer

ORBIFLY MET'MAP TEAM :

Programmation & Développement : Alexandra Zaïnal
Conception & Développement : Baudouin d'Aumeries
Co-Programmation & Développement : Marc-Olivier Méhu
Soutien technique & logistique : Manuel Goepfert

Contact : metmap@orbifly.com




SOURCES & CREDITS :

   NOAA